createdAt,value
2017-09-01T00:00:29.567Z,81.3
2017-09-01T00:01:10.179Z,81.4
2017-09-01T00:01:50.803Z,81.4
2017-09-01T00:02:31.480Z,80.92
2017-09-01T00:03:12.106Z,81.3
2017-09-01T00:03:52.714Z,81.4
2017-09-01T00:04:33.370Z,81.12
2017-09-01T00:05:14.045Z,80.92
2017-09-01T00:05:54.749Z,81.12
2017-09-01T00:06:35.369Z,81.02
2017-09-01T00:07:15.991Z,80.92
2017-09-01T00:07:56.624Z,80.92
2017-09-01T00:08:37.270Z,81.02
2017-09-01T00:09:17.896Z,81.12
2017-09-01T00:09:58.550Z,81.12
2017-09-01T00:10:39.193Z,80.83
2017-09-01T00:11:19.890Z,80.63
2017-09-01T00:12:00.521Z,81.3
2017-09-01T00:12:41.168Z,81.12
2017-09-01T00:13:21.798Z,81.4
2017-09-01T00:14:02.451Z,81.21
2017-09-01T00:14:43.079Z,81.5
2017-09-01T00:15:23.704Z,81.5
2017-09-01T00:16:04.321Z,81.5
2017-09-01T00:16:44.976Z,81.4
2017-09-01T00:17:25.623Z,81.4
2017-09-01T00:18:06.266Z,80.44
2017-09-01T00:18:46.890Z,81.12
2017-09-01T00:19:27.528Z,81.02
2017-09-01T00:20:08.146Z,81.12
2017-09-01T00:20:48.778Z,80.83
2017-09-01T00:21:29.386Z,81.02
2017-09-01T00:22:10.032Z,80.92
2017-09-01T00:22:50.758Z,81.6
2017-09-01T00:23:31.411Z,81.3
2017-09-01T00:24:12.056Z,81.12
2017-09-01T00:24:52.689Z,80.73
2017-09-01T00:25:33.336Z,81.02
2017-09-01T00:26:13.966Z,80.83
2017-09-01T00:26:54.579Z,81.12
2017-09-01T00:27:35.191Z,81.3
2017-09-01T00:28:15.827Z,81.02
2017-09-01T00:28:56.468Z,81.02
2017-09-01T00:29:37.109Z,81.6
2017-09-01T00:30:17.925Z,81.6
2017-09-01T00:30:58.547Z,81.4
2017-09-01T00:31:39.192Z,81.12
2017-09-01T00:32:19.840Z,81.12
2017-09-01T00:33:00.487Z,81.4
2017-09-01T00:33:41.114Z,81.12
2017-09-01T00:34:21.786Z,81.4
2017-09-01T00:35:02.421Z,81.6
2017-09-01T00:35:43.046Z,81.3
2017-09-01T00:36:23.668Z,81.3
2017-09-01T00:37:04.282Z,80.73
2017-09-01T00:37:44.944Z,80.77
2017-09-01T00:38:25.565Z,80.48
2017-09-01T00:39:06.174Z,80.58
2017-09-01T00:39:46.807Z,80.77
2017-09-01T00:40:27.435Z,80.44
2017-09-01T00:41:08.067Z,81.02
2017-09-01T00:41:48.720Z,81.02
2017-09-01T00:42:29.328Z,81.16
2017-09-01T00:43:10.524Z,80.96
2017-09-01T00:43:51.078Z,80.87
2017-09-01T00:44:31.757Z,80.58
2017-09-01T00:45:12.442Z,80.77
2017-09-01T00:45:53.231Z,80.19
2017-09-01T00:46:34.712Z,80.48
2017-09-01T00:47:15.472Z,80.29
2017-09-01T00:47:56.355Z,79.81
2017-09-01T00:48:37.183Z,80.48
2017-09-01T00:49:17.812Z,79.9
2017-09-01T00:49:58.871Z,80.63
2017-09-01T00:50:39.722Z,80.63
2017-09-01T00:51:20.106Z,80.92
2017-09-01T00:52:01.249Z,81.3
2017-09-01T00:52:42.237Z,81.4
2017-09-01T00:53:22.935Z,81.3
2017-09-01T00:54:04.210Z,81.3
2017-09-01T00:54:44.841Z,81.4
2017-09-01T00:55:25.820Z,81.12
2017-09-01T00:56:06.486Z,81.6
2017-09-01T00:56:47.136Z,81.3
2017-09-01T00:57:28.317Z,81.7
2017-09-01T00:58:08.927Z,81.98
2017-09-01T00:58:50.389Z,82.08
2017-09-01T00:59:31.403Z,81.79
2017-09-01T01:00:12.949Z,81.79
2017-09-01T01:00:53.574Z,82.27
2017-09-01T01:01:34.713Z,82.08
2017-09-01T01:02:15.817Z,82.27
2017-09-01T01:02:56.996Z,82.27
2017-09-01T01:03:37.978Z,82.37
2017-09-01T01:04:18.675Z,82.46
2017-09-01T01:05:00.032Z,82.08
2017-09-01T01:05:40.461Z,81.98
2017-09-01T01:06:21.164Z,81.88
2017-09-01T01:07:01.929Z,82.37
2017-09-01T01:07:42.618Z,81.98
2017-09-01T01:08:23.345Z,81.79
2017-09-01T01:09:03.984Z,81.5
2017-09-01T01:09:45.147Z,81.79
2017-09-01T01:10:25.702Z,82.37
2017-09-01T01:11:06.270Z,82.37
2017-09-01T01:11:47.146Z,81.6
2017-09-01T01:12:27.973Z,82.27
2017-09-01T01:13:08.685Z,82.37
2017-09-01T01:13:49.317Z,82.17
2017-09-01T01:14:30.133Z,82.46
2017-09-01T01:15:10.652Z,82.27
2017-09-01T01:15:51.399Z,82.37
2017-09-01T01:16:32.037Z,82.17
2017-09-01T01:17:12.849Z,81.88
2017-09-01T01:17:53.495Z,82.56
2017-09-01T01:18:34.119Z,81.79
2017-09-01T01:19:14.867Z,81.7
2017-09-01T01:19:55.598Z,81.79
2017-09-01T01:20:36.290Z,81.98
2017-09-01T01:21:16.922Z,81.7
2017-09-01T01:21:57.581Z,81.7
2017-09-01T01:22:38.224Z,82.27
2017-09-01T01:23:19.041Z,82.37
2017-09-01T01:23:59.640Z,81.98
2017-09-01T01:24:40.363Z,81.79
2017-09-01T01:25:21.053Z,82.17
2017-09-01T01:26:01.808Z,82.46
2017-09-01T01:26:42.458Z,82.27
2017-09-01T01:27:23.295Z,82.46
2017-09-01T01:28:04.034Z,82.27
2017-09-01T01:28:45.879Z,82.52
2017-09-01T01:41:49.187Z,82.08
2017-09-01T01:42:29.840Z,81.79
2017-09-01T01:43:10.770Z,81.88
2017-09-01T01:43:51.668Z,82.17
2017-09-01T01:44:32.933Z,81.79
2017-09-01T01:45:13.994Z,81.98
2017-09-01T01:45:55.219Z,81.88
2017-09-01T01:46:36.628Z,81.21
2017-09-01T01:47:18.137Z,81.5
2017-09-01T01:48:02.346Z,81.98
2017-09-01T01:48:43.826Z,81.3
2017-09-01T01:51:05.195Z,81.4
2017-09-01T01:51:46.145Z,81.45
2017-09-01T01:52:26.975Z,81.6
2017-09-01T01:53:07.790Z,80.92
2017-09-01T01:53:48.497Z,81.6
2017-09-01T01:54:29.259Z,81.6
2017-09-01T01:55:10.117Z,81.4
2017-09-01T01:55:50.786Z,81.98
2017-09-01T01:56:31.642Z,82.17
2017-09-01T01:57:12.260Z,81.98
2017-09-01T01:57:53.221Z,81.98
2017-09-01T01:58:33.984Z,82.56
2017-09-01T01:59:15.253Z,82.75
2017-09-01T01:59:56.116Z,82.75
2017-09-01T02:00:37.085Z,82.65
2017-09-01T02:01:17.722Z,82.56
2017-09-01T02:01:58.827Z,82.65
2017-09-01T02:02:39.243Z,82.27
2017-09-01T02:03:20.321Z,82.27
2017-09-01T02:04:01.168Z,81.7
2017-09-01T02:04:42.505Z,82.85
2017-09-01T02:05:23.355Z,82.65
2017-09-01T02:06:04.029Z,82.71
2017-09-01T02:06:44.811Z,83.09
2017-09-01T02:07:25.633Z,82.94
2017-09-01T02:08:06.667Z,82.85
2017-09-01T02:08:47.364Z,82.56
2017-09-01T02:09:28.366Z,82.56
2017-09-01T02:11:48.574Z,82.17
2017-09-01T02:12:29.294Z,82.17
2017-09-01T02:13:09.883Z,81.79
2017-09-01T02:13:50.717Z,82.17
2017-09-01T02:14:31.331Z,82.37
2017-09-01T02:15:12.078Z,82.85
2017-09-01T02:15:52.705Z,82.56
2017-09-01T02:16:33.402Z,82.65
2017-09-01T02:17:13.976Z,82.85
2017-09-01T02:17:54.691Z,82.17
2017-09-01T02:18:35.336Z,82.75
2017-09-01T02:19:15.976Z,82.85
2017-09-01T02:19:56.654Z,82.85
2017-09-01T02:20:37.307Z,82.75
2017-09-01T02:21:17.999Z,82.94
2017-09-01T02:21:58.614Z,82.27
2017-09-01T02:22:39.268Z,82.27
2017-09-01T02:23:19.941Z,82.85
2017-09-01T02:24:00.685Z,82.75
2017-09-01T02:24:41.491Z,82.85
2017-09-01T02:25:22.125Z,82.75
2017-09-01T02:26:02.790Z,82.85
2017-09-01T02:26:43.469Z,82.56
2017-09-01T02:27:24.242Z,82.27
2017-09-01T02:28:05.028Z,82.56
2017-09-01T02:28:45.759Z,82.85
2017-09-01T02:29:26.322Z,82.75
2017-09-01T02:30:07.007Z,82.94
2017-09-01T02:30:47.716Z,82.75
2017-09-01T02:31:28.411Z,82.75
2017-09-01T02:32:09.044Z,82.46
2017-09-01T02:32:49.726Z,82.37
2017-09-01T02:33:30.419Z,82.37
2017-09-01T02:34:11.194Z,81.98
2017-09-01T02:34:51.845Z,81.88
2017-09-01T02:35:32.582Z,81.98
2017-09-01T02:36:13.234Z,81.79
2017-09-01T02:36:53.793Z,81.98
2017-09-01T02:37:34.452Z,82.27
2017-09-01T02:38:15.119Z,82.27
2017-09-01T02:38:55.794Z,82.46
2017-09-01T02:39:36.460Z,82.08
2017-09-01T02:40:17.214Z,82.17
2017-09-01T02:40:57.825Z,82.17
2017-09-01T02:41:38.546Z,82.27
2017-09-01T02:42:19.191Z,82.37
2017-09-01T02:42:59.958Z,81.79
2017-09-01T02:43:40.664Z,81.79
2017-09-01T02:44:21.320Z,82.27
2017-09-01T02:45:01.873Z,82.08
2017-09-01T02:45:42.713Z,81.7
2017-09-01T02:46:23.362Z,82.46
2017-09-01T02:47:04.153Z,82.17
2017-09-01T02:47:44.680Z,81.79
2017-09-01T02:48:25.334Z,81.88
2017-09-01T02:49:06.060Z,81.88
2017-09-01T02:49:46.661Z,82.08
2017-09-01T02:50:27.315Z,81.7
2017-09-01T02:51:08.043Z,81.79
2017-09-01T02:51:48.811Z,81.79
2017-09-01T02:52:29.521Z,81.88
2017-09-01T02:53:10.100Z,81.12
2017-09-01T02:53:50.750Z,81.12
2017-09-01T02:54:31.489Z,81.12
2017-09-01T02:55:12.054Z,81.02
2017-09-01T02:55:52.724Z,80.54
2017-09-01T02:56:33.673Z,80.44
2017-09-01T02:57:14.511Z,80.63
2017-09-01T02:57:55.354Z,80.06
2017-09-01T02:58:37.295Z,80.15
2017-09-01T02:59:17.816Z,79.67
2017-09-01T03:00:01.034Z,79.86
2017-09-01T03:05:59.909Z,79.86
2017-09-01T03:06:40.479Z,79.67
2017-09-01T03:07:21.208Z,80.15
2017-09-01T03:08:01.929Z,80.15
2017-09-01T03:08:42.573Z,80.73
2017-09-01T03:09:23.159Z,80.06
2017-09-01T03:10:03.814Z,80.54
2017-09-01T03:10:44.571Z,80.44
2017-09-01T03:11:25.164Z,80.73
2017-09-01T03:12:05.822Z,80.73
2017-09-01T03:12:46.490Z,80.35
2017-09-01T03:13:27.214Z,80.44
2017-09-01T03:14:07.850Z,80.73
2017-09-01T03:14:48.584Z,80.44
2017-09-01T03:15:29.224Z,80.73
2017-09-01T03:16:09.812Z,80.54
2017-09-01T03:16:50.573Z,80.54
2017-09-01T03:17:31.198Z,80.54
2017-09-01T03:18:11.877Z,80.92
2017-09-01T03:18:52.537Z,81.12
2017-09-01T03:19:33.281Z,81.5
2017-09-01T03:20:13.974Z,81.02
2017-09-01T03:20:54.928Z,81.12
2017-09-01T03:21:35.763Z,80.54
2017-09-01T03:22:16.500Z,81.12
2017-09-01T03:22:57.103Z,80.83
2017-09-01T03:23:37.763Z,80.44
2017-09-01T03:24:18.395Z,80.92
2017-09-01T03:24:59.006Z,81.02
2017-09-01T03:25:39.653Z,80.63
2017-09-01T03:26:20.275Z,80.54
2017-09-01T03:27:00.911Z,80.44
2017-09-01T03:27:41.558Z,80.63
2017-09-01T03:28:22.190Z,80.44
2017-09-01T03:29:02.813Z,80.73
2017-09-01T03:29:43.420Z,79.77
2017-09-01T03:30:24.069Z,80.54
2017-09-01T03:31:04.700Z,80.35
2017-09-01T03:31:45.327Z,80.25
2017-09-01T03:32:25.929Z,80.54
2017-09-01T03:33:06.600Z,80.63
2017-09-01T03:33:47.215Z,80.44
2017-09-01T03:34:27.857Z,79.96
2017-09-01T03:35:08.472Z,80.35
2017-09-01T03:35:49.114Z,80.44
2017-09-01T03:36:29.747Z,80.54
2017-09-01T03:37:10.362Z,80.63
2017-09-01T03:37:51.015Z,80.54
2017-09-01T03:38:31.607Z,80.44
2017-09-01T03:39:12.254Z,80.73
2017-09-01T03:39:52.869Z,80.92
2017-09-01T03:40:33.515Z,81.21
2017-09-01T03:41:14.148Z,80.92
2017-09-01T03:41:54.765Z,81.21
2017-09-01T03:42:35.414Z,81.12
2017-09-01T03:43:16.080Z,80.92
2017-09-01T03:43:56.703Z,80.44
2017-09-01T03:44:37.321Z,80.35
2017-09-01T03:45:18.015Z,80.63
2017-09-01T03:45:58.658Z,79.96
2017-09-01T03:46:39.265Z,80.83
2017-09-01T03:47:19.890Z,79.86
2017-09-01T03:48:00.530Z,79.67
2017-09-01T03:48:41.492Z,79.67
2017-09-01T03:49:21.943Z,80.15
2017-09-01T03:50:02.548Z,80.44
2017-09-01T03:50:43.185Z,79.96
2017-09-01T03:51:23.806Z,80.06
2017-09-01T03:52:04.408Z,79.77
2017-09-01T03:52:45.044Z,80.35
2017-09-01T03:53:25.662Z,79.48
2017-09-01T03:54:06.318Z,79.77
2017-09-01T03:54:46.938Z,80.06
2017-09-01T03:55:27.585Z,80.54
2017-09-01T03:56:08.231Z,80.73
2017-09-01T03:56:48.861Z,80.44
2017-09-01T03:57:29.480Z,80.92
2017-09-01T03:58:10.078Z,80.92
2017-09-01T03:58:50.711Z,81.02
2017-09-01T03:59:31.358Z,80.63
2017-09-01T04:00:11.958Z,80.73
2017-09-01T04:00:52.601Z,81.02
2017-09-01T04:01:33.225Z,80.44
2017-09-01T04:02:13.845Z,81.02
2017-09-01T04:02:54.470Z,81.02
2017-09-01T04:03:35.094Z,80.73
2017-09-01T04:04:15.883Z,80.54
2017-09-01T04:04:56.521Z,80.54
2017-09-01T04:05:37.183Z,80.35
2017-09-01T04:06:17.822Z,80.06
2017-09-01T04:06:58.446Z,80.54
2017-09-01T04:07:39.063Z,80.54
2017-09-01T04:08:19.679Z,79.67
2017-09-01T04:09:00.314Z,80.15
2017-09-01T04:09:40.982Z,79.96
2017-09-01T04:10:21.577Z,80.25
2017-09-01T04:11:02.227Z,80.15
2017-09-01T04:11:42.861Z,79.48
2017-09-01T04:12:23.482Z,80.15
2017-09-01T04:13:04.105Z,80.06
2017-09-01T04:13:44.733Z,79.48
2017-09-01T04:14:25.331Z,80.06
2017-09-01T04:15:05.945Z,79.77
2017-09-01T04:15:46.573Z,79.48
2017-09-01T04:16:27.214Z,79.67
2017-09-01T04:17:07.845Z,79.67
2017-09-01T04:17:48.476Z,80.35
2017-09-01T04:18:29.112Z,79.96
2017-09-01T04:19:09.785Z,79.67
2017-09-01T04:19:50.461Z,80.25
2017-09-01T04:20:31.050Z,79.77
2017-09-01T04:21:11.678Z,80.44
2017-09-01T04:21:52.315Z,80.44
2017-09-01T04:22:32.940Z,80.25
2017-09-01T04:23:13.587Z,80.44
2017-09-01T04:23:54.239Z,80.54
2017-09-01T04:24:34.861Z,80.63
2017-09-01T04:25:15.520Z,80.73
2017-09-01T04:25:56.174Z,80.73
2017-09-01T04:26:36.780Z,80.44
2017-09-01T04:27:17.365Z,80.44
2017-09-01T04:27:58.084Z,80.73
2017-09-01T04:28:38.714Z,79.96
2017-09-01T04:29:19.340Z,80.54
2017-09-01T04:29:59.979Z,80.73
2017-09-01T04:30:40.618Z,80.06
2017-09-01T04:31:21.241Z,79.86
2017-09-01T04:32:01.880Z,80.35
2017-09-01T04:32:42.544Z,80.35
2017-09-01T04:33:23.154Z,80.44
2017-09-01T04:34:03.793Z,79.67
2017-09-01T04:34:44.420Z,80.44
2017-09-01T04:35:25.075Z,80.73
2017-09-01T04:36:05.693Z,80.63
2017-09-01T04:36:46.314Z,80.44
2017-09-01T04:37:26.949Z,80.73
2017-09-01T04:38:07.569Z,80.54
2017-09-01T04:38:48.232Z,80.73
2017-09-01T04:39:28.847Z,80.06
2017-09-01T04:40:09.475Z,80.25
2017-09-01T04:40:50.095Z,79.86
2017-09-01T04:41:30.724Z,80.06
2017-09-01T04:42:11.411Z,80.02
2017-09-01T04:42:52.055Z,80.11
2017-09-01T04:43:32.707Z,80.5
2017-09-01T04:44:13.381Z,79.92
2017-09-01T04:44:54.020Z,80.21
2017-09-01T04:45:34.653Z,80.11
2017-09-01T04:46:15.301Z,79.96
2017-09-01T04:46:55.913Z,79.67
2017-09-01T04:47:36.515Z,80.06
2017-09-01T04:48:17.150Z,80.15
2017-09-01T04:48:57.795Z,80.02
2017-09-01T04:49:38.439Z,80.44
2017-09-01T04:50:19.065Z,80.15
2017-09-01T04:50:59.748Z,79.96
2017-09-01T04:51:40.341Z,79.96
2017-09-01T04:52:20.959Z,80.15
2017-09-01T04:53:01.613Z,80.02
2017-09-01T04:53:42.249Z,80.44
2017-09-01T04:54:22.882Z,79.63
2017-09-01T04:55:03.517Z,79.58
2017-09-01T04:55:44.155Z,80.6
2017-09-01T04:56:24.860Z,79.96
2017-09-01T04:57:05.533Z,80.21
2017-09-01T04:57:46.153Z,80.35
2017-09-01T04:58:26.799Z,79.63
2017-09-01T04:59:07.433Z,79.58
2017-09-01T04:59:48.070Z,79.58
2017-09-01T05:00:28.783Z,79.48
2017-09-01T05:01:09.445Z,79.67
2017-09-01T05:01:50.101Z,79.67
2017-09-01T05:02:30.735Z,79.67
2017-09-01T05:03:11.366Z,79.73
2017-09-01T05:03:52.016Z,79.35
2017-09-01T05:04:32.631Z,79.35
2017-09-01T05:05:13.255Z,79.44
2017-09-01T05:05:53.883Z,79.05
2017-09-01T05:06:34.488Z,78.58
2017-09-01T05:07:16.048Z,78.96
2017-09-01T05:07:57.227Z,78.77
2017-09-01T05:08:37.863Z,78.48
2017-09-01T05:09:18.501Z,78.67
2017-09-01T05:09:59.142Z,78.77
2017-09-01T05:10:39.780Z,78.58
2017-09-01T05:11:20.418Z,78.58
2017-09-01T05:12:01.031Z,78.58
2017-09-01T05:12:41.657Z,78.96
2017-09-01T05:13:22.308Z,79.25
2017-09-01T05:14:03.043Z,78.77
2017-09-01T05:14:44.299Z,79.44
2017-09-01T05:15:24.297Z,78.77
2017-09-01T05:16:04.921Z,78.81
2017-09-01T05:16:45.545Z,78.9
2017-09-01T05:17:26.208Z,79
2017-09-01T05:18:06.837Z,82.42
2017-09-01T05:18:47.661Z,84
2017-09-01T05:19:28.422Z,80.98
2017-09-01T05:20:09.068Z,80.46
2017-09-01T05:20:49.911Z,80.55
2017-09-01T05:21:30.519Z,85.21
2017-09-01T05:22:11.132Z,90.31
2017-09-01T05:22:51.818Z,92.13
2017-09-01T05:23:32.493Z,91.56
2017-09-01T05:24:13.105Z,88.87
2017-09-01T05:24:53.719Z,87.23
2017-09-01T05:25:34.355Z,91.22
2017-09-01T05:26:15.373Z,92.47
2017-09-01T05:26:56.036Z,89.97
2017-09-01T05:27:36.691Z,87.95
2017-09-01T05:28:17.347Z,84.39
2017-09-01T05:28:57.957Z,84.1
2017-09-01T05:29:38.604Z,84.39
2017-09-01T05:30:19.224Z,85.74
2017-09-01T05:30:59.885Z,87.37
2017-09-01T05:31:40.503Z,91.22
2017-09-01T05:32:21.139Z,85.54
2017-09-01T05:33:01.795Z,82.85
2017-09-01T05:33:42.406Z,85.64
2017-09-01T05:34:23.077Z,85.16
2017-09-01T05:35:03.728Z,83.91
2017-09-01T05:35:44.514Z,81.88
2017-09-01T05:36:25.192Z,81.35
2017-09-01T05:37:05.825Z,81.54
2017-09-01T05:37:46.453Z,82.89
2017-09-01T05:38:27.161Z,84.23
2017-09-01T05:39:07.826Z,87.99
2017-09-01T05:39:48.439Z,87.99
2017-09-01T05:40:29.085Z,85.2
2017-09-01T05:41:09.852Z,84.43
2017-09-01T05:41:50.710Z,83.75
2017-09-01T05:42:31.339Z,83.18
2017-09-01T05:43:11.971Z,83.85
2017-09-01T05:43:52.641Z,82.5
2017-09-01T05:44:33.258Z,81.54
2017-09-01T05:45:13.911Z,80.29
2017-09-01T05:45:54.539Z,79.71
2017-09-01T05:46:35.255Z,77.78
2017-09-01T05:47:15.935Z,76.44
2017-09-01T05:47:56.666Z,77.4
2017-09-01T05:48:37.325Z,78.65
2017-09-01T05:49:17.993Z,79.71
2017-09-01T05:49:58.639Z,82.21
2017-09-01T05:50:39.279Z,80.68
2017-09-01T05:51:19.928Z,80.38
2017-09-01T05:52:00.560Z,79.71
2017-09-01T05:52:41.213Z,80.38
2017-09-01T05:53:21.887Z,82.41
2017-09-01T05:54:02.570Z,85.3
2017-09-01T05:54:43.188Z,84
2017-09-01T05:55:23.842Z,82.79
2017-09-01T05:56:04.525Z,83.52
2017-09-01T05:56:45.176Z,81.98
2017-09-01T05:57:25.786Z,81.21
2017-09-01T05:58:06.439Z,81.12
2017-09-01T05:58:47.061Z,80.68
2017-09-01T05:59:27.868Z,80.96
2017-09-01T06:00:08.509Z,79.33
2017-09-01T06:00:49.131Z,78.85
2017-09-01T06:01:29.729Z,80.96
2017-09-01T06:02:10.451Z,79.77
2017-09-01T06:02:51.028Z,82.89
2017-09-01T06:03:31.660Z,85.06
2017-09-01T06:04:12.327Z,87.41
2017-09-01T06:04:52.987Z,89.1
2017-09-01T06:05:33.655Z,86.6
2017-09-01T06:06:14.305Z,84.05
2017-09-01T06:06:54.942Z,85.1
2017-09-01T06:07:35.582Z,83.37
2017-09-01T06:08:16.235Z,83.66
2017-09-01T06:08:56.989Z,82.89
2017-09-01T06:09:37.617Z,79.9
2017-09-01T06:10:18.214Z,82.89
2017-09-01T06:10:58.860Z,82.93
2017-09-01T06:11:39.506Z,80.1
2017-09-01T06:12:20.166Z,82.74
2017-09-01T06:13:00.880Z,82.93
2017-09-01T06:13:41.523Z,84.09
2017-09-01T06:14:22.214Z,84.28
2017-09-01T06:15:02.840Z,85.24
2017-09-01T06:15:43.477Z,85.43
2017-09-01T06:16:24.124Z,82.83
2017-09-01T06:17:04.779Z,86.88
2017-09-01T06:17:45.412Z,87.26
2017-09-01T06:18:26.053Z,83.8
2017-09-01T06:19:06.659Z,81.01
2017-09-01T06:19:47.319Z,83.7
2017-09-01T06:20:27.939Z,86.88
2017-09-01T06:21:09.488Z,90.73
2017-09-01T06:21:50.089Z,89.43
2017-09-01T06:22:30.760Z,87.3
2017-09-01T06:23:11.408Z,88.71
2017-09-01T06:23:52.052Z,89.62
2017-09-01T06:24:32.736Z,88.37
2017-09-01T06:25:13.387Z,82.93
2017-09-01T06:25:54.015Z,81.58
2017-09-01T06:26:34.716Z,83.61
2017-09-01T06:27:15.347Z,82.39
2017-09-01T06:27:55.962Z,83.64
2017-09-01T06:28:36.659Z,83.55
2017-09-01T06:29:17.282Z,80.52
2017-09-01T06:29:57.914Z,81.04
2017-09-01T06:30:38.595Z,81.43
2017-09-01T06:31:19.452Z,80.62
2017-09-01T06:31:59.975Z,82.59
2017-09-01T06:32:40.602Z,80.56
2017-09-01T06:33:21.330Z,78.54
2017-09-01T06:34:01.941Z,81.04
2017-09-01T06:34:42.550Z,78.54
2017-09-01T06:35:23.193Z,78.73
2017-09-01T06:36:03.863Z,77.48
2017-09-01T06:36:44.483Z,77.48
2017-09-01T06:37:25.163Z,82.29
2017-09-01T06:38:05.753Z,82.68
2017-09-01T06:38:46.429Z,81.24
2017-09-01T06:39:27.023Z,83.94
2017-09-01T06:40:07.653Z,79.75
2017-09-01T06:40:48.275Z,77.44
2017-09-01T06:41:28.926Z,75.42
2017-09-01T06:42:09.568Z,75.03
2017-09-01T06:42:50.235Z,77.06
2017-09-01T06:43:30.887Z,77.73
2017-09-01T06:44:11.517Z,77.48
2017-09-01T06:44:52.202Z,75.9
2017-09-01T06:45:32.843Z,74.65
2017-09-01T06:46:13.547Z,74.55
2017-09-01T06:46:54.213Z,79.17
2017-09-01T06:47:34.815Z,79.08
2017-09-01T06:48:15.474Z,79.17
2017-09-01T06:48:56.126Z,78.4
2017-09-01T06:49:36.728Z,78.69
2017-09-01T06:50:17.396Z,76.38
2017-09-01T06:50:58.006Z,79.46
2017-09-01T06:51:38.631Z,79.75
2017-09-01T06:52:19.330Z,81.2
2017-09-01T06:52:59.991Z,82.54
2017-09-01T06:53:40.619Z,84.86
2017-09-01T06:54:21.268Z,84.76
2017-09-01T06:55:01.921Z,84.91
2017-09-01T06:55:42.557Z,83.75
2017-09-01T06:56:23.192Z,80
2017-09-01T06:57:03.863Z,78.27
2017-09-01T06:57:44.450Z,76.34
2017-09-01T06:58:25.183Z,75.67
2017-09-01T06:59:05.868Z,74.99
2017-09-01T06:59:46.502Z,76.25
2017-09-01T07:00:27.128Z,82.6
2017-09-01T07:01:07.753Z,81.01
2017-09-01T07:01:48.410Z,82.06
2017-09-01T07:02:29.027Z,80.91
2017-09-01T07:03:09.679Z,76.67
2017-09-01T07:03:50.313Z,76.09
2017-09-01T07:04:31.000Z,78.5
2017-09-01T07:05:11.617Z,77.53
2017-09-01T07:05:52.241Z,75.51
2017-09-01T07:06:32.863Z,79.85
2017-09-01T07:07:13.470Z,76.32
2017-09-01T07:07:54.356Z,74.45
2017-09-01T07:08:34.929Z,74.74
2017-09-01T07:09:15.560Z,80.27
2017-09-01T07:09:56.463Z,81.33
2017-09-01T07:10:36.891Z,79.6
2017-09-01T07:11:17.541Z,81.72
2017-09-01T07:11:58.449Z,75.93
2017-09-01T07:12:39.076Z,77.38
2017-09-01T07:13:19.706Z,77.71
2017-09-01T07:14:00.327Z,77.38
2017-09-01T07:14:40.980Z,74.88
2017-09-01T07:15:21.609Z,72.47
2017-09-01T07:16:02.225Z,72.37
2017-09-01T07:16:42.827Z,78.83
2017-09-01T07:17:23.444Z,82.49
2017-09-01T07:18:04.045Z,81.52
2017-09-01T07:18:44.709Z,76.71
2017-09-01T07:19:25.363Z,73.62
2017-09-01T07:20:05.983Z,73.05
2017-09-01T07:20:46.644Z,73.39
2017-09-01T07:21:27.266Z,72.81
2017-09-01T07:22:07.972Z,82.78
2017-09-01T07:22:48.602Z,89.72
2017-09-01T07:23:29.207Z,86.35
2017-09-01T07:24:09.859Z,80.46
2017-09-01T07:24:50.500Z,76.32
2017-09-01T07:25:31.139Z,76.23
2017-09-01T07:26:11.907Z,74.88
2017-09-01T07:26:52.621Z,73.91
2017-09-01T07:27:33.215Z,73.33
2017-09-01T07:28:13.955Z,72.56
2017-09-01T07:28:54.558Z,73.43
2017-09-01T07:29:35.185Z,81.04
2017-09-01T07:30:15.840Z,76.51
2017-09-01T07:30:56.481Z,74.4
2017-09-01T07:31:37.119Z,75.07
2017-09-01T07:32:17.737Z,74.2
2017-09-01T07:32:58.401Z,72.95
2017-09-01T07:33:39.033Z,72.56
2017-09-01T07:34:19.703Z,76.9
2017-09-01T07:35:00.343Z,79.21
2017-09-01T07:35:40.999Z,81.91
2017-09-01T07:36:21.645Z,79.6
2017-09-01T07:37:02.253Z,79.64
2017-09-01T07:37:42.885Z,81.04
2017-09-01T07:38:23.524Z,82.1
2017-09-01T07:39:04.261Z,79.6
2017-09-01T07:39:44.981Z,74.1
2017-09-01T07:40:25.594Z,75.1
2017-09-01T07:41:06.265Z,76.61
2017-09-01T07:41:46.821Z,78.92
2017-09-01T07:42:27.454Z,76.61
2017-09-01T07:43:08.120Z,74.4
2017-09-01T07:43:48.738Z,73.14
2017-09-01T07:44:29.405Z,74.88
2017-09-01T07:45:10.053Z,78.09
2017-09-01T07:45:50.698Z,77.86
2017-09-01T07:46:31.307Z,74.2
2017-09-01T07:47:11.941Z,76.32
2017-09-01T07:47:52.571Z,77.96
2017-09-01T07:48:33.323Z,73.68
2017-09-01T07:49:13.956Z,73.3
2017-09-01T07:49:54.587Z,73.68
2017-09-01T07:50:35.230Z,73.88
2017-09-01T07:51:15.882Z,74.32
2017-09-01T07:51:56.540Z,75.23
2017-09-01T07:52:37.160Z,74.07
2017-09-01T07:53:17.878Z,73.49
2017-09-01T07:53:58.588Z,78.59
2017-09-01T07:54:39.190Z,78.79
2017-09-01T07:55:19.841Z,77.44
2017-09-01T07:56:00.484Z,75.32
2017-09-01T07:56:41.120Z,75.42
2017-09-01T07:57:21.741Z,76.38
2017-09-01T07:58:02.352Z,79.66
2017-09-01T07:58:42.966Z,81.87
2017-09-01T07:59:23.606Z,82.35
2017-09-01T08:00:04.300Z,77.44
2017-09-01T08:00:45.063Z,77.58
2017-09-01T08:01:25.693Z,76.48
2017-09-01T08:02:06.398Z,77.06
2017-09-01T08:02:47.025Z,76.34
2017-09-01T08:03:27.624Z,83.61
2017-09-01T08:04:08.280Z,80.81
2017-09-01T08:04:48.912Z,76.86
2017-09-01T08:05:29.543Z,79.46
2017-09-01T08:06:10.164Z,78.79
2017-09-01T08:06:50.809Z,77.63
2017-09-01T08:07:31.467Z,77.67
2017-09-01T08:08:12.129Z,78.63
2017-09-01T08:08:52.797Z,79.25
2017-09-01T08:09:33.410Z,78.96
2017-09-01T08:10:14.011Z,76.45
2017-09-01T08:10:54.657Z,74.52
2017-09-01T08:11:35.320Z,74.05
2017-09-01T08:12:15.902Z,78.19
2017-09-01T08:12:56.535Z,78.96
2017-09-01T08:13:37.152Z,75.68
2017-09-01T08:14:17.791Z,73.47
2017-09-01T08:14:58.393Z,73.85
2017-09-01T08:15:39.043Z,73.66
2017-09-01T08:16:19.649Z,74.62
2017-09-01T08:17:00.342Z,75.49
2017-09-01T08:17:40.982Z,73.85
2017-09-01T08:18:21.591Z,73.02
2017-09-01T08:19:02.253Z,71.77
2017-09-01T08:19:42.937Z,73.5
2017-09-01T08:20:23.594Z,74.18
2017-09-01T08:21:04.323Z,74.47
2017-09-01T08:21:44.898Z,75.24
2017-09-01T08:22:25.723Z,73.89
2017-09-01T08:23:06.402Z,72.63
2017-09-01T08:23:47.021Z,71.9
2017-09-01T08:24:27.622Z,71.8
2017-09-01T08:25:08.245Z,71
2017-09-01T08:25:48.900Z,70.03
2017-09-01T08:26:29.547Z,71.38
2017-09-01T08:27:10.246Z,73.31
2017-09-01T08:27:50.915Z,70.9
2017-09-01T08:28:31.529Z,70.61
2017-09-01T08:29:12.191Z,72.83
2017-09-01T08:29:52.823Z,71.09
2017-09-01T08:30:33.503Z,69.55
2017-09-01T08:31:14.144Z,69.64
2017-09-01T08:31:54.817Z,73.5
2017-09-01T08:32:35.442Z,71.28
2017-09-01T08:33:16.082Z,72.73
2017-09-01T08:33:56.770Z,74.18
2017-09-01T08:34:37.433Z,72.09
2017-09-01T08:35:18.076Z,70.61
2017-09-01T08:35:58.702Z,71.28
2017-09-01T08:36:39.372Z,76.68
2017-09-01T08:37:19.998Z,76.88
2017-09-01T08:38:00.653Z,76.01
2017-09-01T08:38:41.295Z,76.88
2017-09-01T08:39:21.995Z,77.17
2017-09-01T08:40:02.707Z,73.99
2017-09-01T08:40:43.361Z,73.5
2017-09-01T08:41:24.002Z,74.02
2017-09-01T08:42:04.693Z,75.27
2017-09-01T08:42:45.340Z,75.37
2017-09-01T08:43:25.967Z,75.18
2017-09-01T08:44:06.575Z,76.82
2017-09-01T08:44:47.215Z,76.43
2017-09-01T08:45:27.857Z,73.44
2017-09-01T08:46:08.562Z,71.9
2017-09-01T08:46:49.123Z,72.13
2017-09-01T08:47:29.875Z,71.55
2017-09-01T08:48:10.537Z,69.9
2017-09-01T08:48:51.173Z,74.64
2017-09-01T08:49:31.818Z,77.34
2017-09-01T08:50:12.467Z,77.53
2017-09-01T08:50:53.130Z,74.54
2017-09-01T08:51:33.870Z,74.73
2017-09-01T08:52:14.561Z,73.19
2017-09-01T08:52:55.193Z,70.87
2017-09-01T08:53:35.826Z,72.8
2017-09-01T08:54:16.467Z,73.48
2017-09-01T08:54:57.161Z,71.64
2017-09-01T08:55:37.793Z,72.74
2017-09-01T08:56:18.446Z,74.64
2017-09-01T08:56:59.135Z,73.86
2017-09-01T08:57:39.819Z,72.8
2017-09-01T08:58:20.521Z,69.62
2017-09-01T08:59:01.075Z,68.26
2017-09-01T08:59:41.815Z,69.71
2017-09-01T09:00:22.426Z,68.98
2017-09-01T09:01:03.099Z,68.68
2017-09-01T09:01:43.695Z,69.65
2017-09-01T09:02:24.399Z,69.46
2017-09-01T09:03:05.029Z,68.3
2017-09-01T09:03:45.645Z,67.72
2017-09-01T09:04:26.270Z,68.59
2017-09-01T09:05:06.907Z,67.14
2017-09-01T09:05:47.554Z,67.82
2017-09-01T09:06:28.197Z,69.36
2017-09-01T09:07:08.910Z,67.33
2017-09-01T09:07:49.596Z,66.56